Time;durP1;ratioP1;P1;durP2;ratioP2;P2;SDS_P1;SDS_P2;PMS_P1;PMS_P2;Temp;Humidity;BMP_temperature;BMP_pressure;BME280_temperature;BME280_humidity;BME280_pressure;Samples;Min_cycle;Max_cycle;Signal;HPM_P1;HPM_P2
2021/10/13 00:00:07;;;;;;;18.58;11.75;;;;;;;7.67;100.00;99955.69;5134789;27;20043;-75
2021/10/13 00:02:36;;;;;;;18.60;11.93;;;;;;;7.60;100.00;99956.94;5134470;27;20041;-73
2021/10/13 00:05:06;;;;;;;18.40;11.93;;;;;;;7.59;100.00;99952.56;5134535;27;20051;-73
2021/10/13 00:07:34;;;;;;;19.58;12.13;;;;;;;7.65;100.00;99955.78;5133529;27;20046;-74
2021/10/13 00:10:04;;;;;;;20.23;11.43;;;;;;;7.71;100.00;99946.59;5134367;27;20043;-74
2021/10/13 00:12:34;;;;;;;22.35;12.10;;;;;;;7.70;100.00;99947.53;5134327;27;20521;-73
2021/10/13 00:15:04;;;;;;;21.10;11.82;;;;;;;7.59;100.00;99944.59;5134447;27;20389;-73
2021/10/13 00:17:33;;;;;;;18.70;11.98;;;;;;;7.55;100.00;99943.91;5134220;27;20043;-73
2021/10/13 00:20:02;;;;;;;21.20;12.35;;;;;;;7.33;100.00;99932.69;5134197;27;20049;-72
2021/10/13 00:22:35;;;;;;;21.30;12.35;;;;;;;7.45;100.00;99930.28;5133916;27;20078;-72
2021/10/13 00:25:05;;;;;;;18.27;11.55;;;;;;;7.68;100.00;99938.81;5134261;27;20039;-73
2021/10/13 00:27:34;;;;;;;18.58;12.25;;;;;;;7.67;100.00;99937.09;5134068;27;20121;-72
2021/10/13 00:30:02;;;;;;;21.27;11.90;;;;;;;7.59;100.00;99934.00;5134208;27;20082;-72
2021/10/13 00:32:31;;;;;;;19.35;12.23;;;;;;;7.51;100.00;99936.19;5133882;27;20377;-71
2021/10/13 00:34:59;;;;;;;20.27;12.25;;;;;;;7.52;100.00;99943.19;5134385;27;20472;-72
2021/10/13 00:37:27;;;;;;;20.60;12.25;;;;;;;7.52;100.00;99932.59;5133950;27;20051;-72
2021/10/13 00:39:55;;;;;;;21.33;12.68;;;;;;;7.45;100.00;99932.94;5134205;27;20429;-71
2021/10/13 00:42:25;;;;;;;20.95;12.98;;;;;;;7.53;100.00;99934.31;5133790;27;20091;-71
2021/10/13 00:44:53;;;;;;;20.50;12.27;;;;;;;7.43;100.00;99924.19;5136604;27;20035;-71
2021/10/13 00:47:21;;;;;;;21.95;12.70;;;;;;;7.42;100.00;99926.91;5136738;27;20092;-71
2021/10/13 00:49:49;;;;;;;21.75;12.65;;;;;;;7.33;100.00;99920.28;5138132;27;20069;-71
2021/10/13 00:52:19;;;;;;;21.25;12.38;;;;;;;7.47;100.00;99920.44;5138075;27;20038;-71
2021/10/13 00:54:47;;;;;;;20.63;12.68;;;;;;;7.48;100.00;99913.31;5137436;28;20047;-71
2021/10/13 00:57:15;;;;;;;22.02;12.80;;;;;;;7.42;100.00;99914.50;5138538;28;20437;-74
2021/10/13 00:59:45;;;;;;;18.48;11.55;;;;;;;7.47;100.00;99914.28;5138815;27;20047;-73
2021/10/13 01:02:21;;;;;;;23.80;13.38;;;;;;;7.33;100.00;99907.00;5139192;27;20434;-74
2021/10/13 01:05:13;;;;;;;22.17;12.50;;;;;;;7.43;100.00;99908.28;5139743;27;20043;-76
2021/10/13 01:08:08;;;;;;;23.42;12.70;;;;;;;7.38;100.00;99905.00;5142567;28;20046;-77
2021/10/13 01:10:50;;;;;;;24.77;14.25;;;;;;;7.16;100.00;99904.41;5137675;27;20061;-75
2021/10/13 01:13:28;;;;;;;21.48;12.75;;;;;;;7.14;100.00;99908.91;5137390;27;20422;-75
2021/10/13 01:16:12;;;;;;;22.50;13.02;;;;;;;7.06;100.00;99908.47;5136752;27;20092;-75
2021/10/13 01:18:48;;;;;;;21.55;13.55;;;;;;;7.06;100.00;99909.31;5137264;27;20043;-75
2021/10/13 01:21:37;;;;;;;22.92;13.73;;;;;;;7.04;100.00;99912.97;5139738;27;20100;-76
2021/10/13 01:24:18;;;;;;;20.83;12.65;;;;;;;7.14;100.00;99911.56;5138796;27;20043;-75
2021/10/13 01:26:59;;;;;;;20.73;13.50;;;;;;;7.04;100.00;99912.97;5137674;27;20039;-76
2021/10/13 01:29:31;;;;;;;24.38;13.77;;;;;;;7.18;100.00;99915.78;5136922;27;20488;-76
2021/10/13 01:32:06;;;;;;;22.45;13.93;;;;;;;7.04;100.00;99913.81;5137849;27;20051;-76
2021/10/13 01:34:37;;;;;;;22.15;13.23;;;;;;;6.92;100.00;99914.44;5137199;27;20050;-74
2021/10/13 01:37:08;;;;;;;23.38;13.40;;;;;;;7.12;100.00;99913.44;5137613;27;20039;-73
2021/10/13 01:39:42;;;;;;;20.80;13.18;;;;;;;7.30;100.00;99916.94;5136990;27;20043;-73
2021/10/13 01:42:13;;;;;;;23.73;13.77;;;;;;;7.14;100.00;99914.22;5137382;27;20039;-73
2021/10/13 01:44:47;;;;;;;25.63;13.93;;;;;;;7.05;100.00;99906.75;5137232;27;20039;-74
2021/10/13 01:47:17;;;;;;;22.95;14.18;;;;;;;7.20;100.00;99921.00;5137304;27;20039;-72
2021/10/13 01:49:48;;;;;;;26.83;14.30;;;;;;;7.27;100.00;99923.28;5136774;27;20071;-74
2021/10/13 01:52:19;;;;;;;23.25;13.27;;;;;;;7.31;100.00;99919.50;5137353;27;20369;-74
2021/10/13 01:54:48;;;;;;;23.17;14.38;;;;;;;7.45;100.00;99914.34;5135695;27;20047;-75
2021/10/13 01:57:18;;;;;;;22.45;14.23;;;;;;;7.43;100.00;99918.91;5137118;27;20049;-75
2021/10/13 01:59:49;;;;;;;23.13;13.88;;;;;;;7.57;100.00;99915.50;5136868;27;20043;-75
2021/10/13 02:02:18;;;;;;;23.88;14.35;;;;;;;7.66;100.00;99919.47;5136980;27;20122;-76
2021/10/13 02:04:49;;;;;;;25.13;14.07;;;;;;;7.81;100.00;99918.63;5136481;27;20043;-75
2021/10/13 02:07:19;;;;;;;23.10;13.65;;;;;;;7.83;100.00;99922.06;5137095;27;20066;-75
2021/10/13 02:09:51;;;;;;;23.33;14.38;;;;;;;7.75;100.00;99921.63;5136464;27;20065;-75
2021/10/13 02:12:22;;;;;;;22.42;13.23;;;;;;;7.89;100.00;99918.22;5136828;27;20563;-75
2021/10/13 02:14:53;;;;;;;22.77;14.35;;;;;;;7.83;100.00;99924.72;5136662;27;20039;-75
2021/10/13 02:17:23;;;;;;;25.20;14.65;;;;;;;7.76;100.00;99926.00;5136973;27;20048;-75
2021/10/13 02:19:53;;;;;;;24.17;14.05;;;;;;;7.87;100.00;99926.25;5137088;27;20062;-75
2021/10/13 02:22:22;;;;;;;25.58;14.82;;;;;;;7.99;100.00;99922.94;5136605;27;20051;-75
2021/10/13 02:24:53;;;;;;;25.70;14.45;;;;;;;7.99;100.00;99922.06;5136716;27;20122;-75
2021/10/13 02:27:25;;;;;;;23.77;14.48;;;;;;;8.00;100.00;99924.66;5136530;27;20051;-75
2021/10/13 02:29:54;;;;;;;24.33;14.38;;;;;;;7.99;100.00;99927.38;5136002;27;20047;-74
2021/10/13 02:32:24;;;;;;;24.23;14.20;;;;;;;8.01;100.00;99920.22;5136262;27;20055;-75
2021/10/13 02:34:53;;;;;;;20.50;13.18;;;;;;;8.01;100.00;99931.69;5136456;27;20536;-75
2021/10/13 02:37:22;;;;;;;23.75;14.75;;;;;;;8.06;100.00;99935.88;5134994;27;20043;-75
2021/10/13 02:39:51;;;;;;;24.70;15.15;;;;;;;8.08;100.00;99942.81;5135798;27;20068;-75
2021/10/13 02:42:19;;;;;;;22.70;13.88;;;;;;;8.17;100.00;99933.50;5136325;27;20047;-75
2021/10/13 02:44:47;;;;;;;20.35;12.77;;;;;;;8.26;100.00;99935.66;5135041;27;20049;-75
2021/10/13 02:47:23;;;;;;;20.67;14.02;;;;;;;8.28;100.00;99928.44;5136101;27;20043;-73
2021/10/13 02:50:00;;;;;;;22.58;13.70;;;;;;;8.27;100.00;99932.91;5135770;27;20465;-73
2021/10/13 02:52:37;;;;;;;22.33;14.50;;;;;;;8.21;100.00;99951.84;5135815;27;20067;-74
2021/10/13 02:55:09;;;;;;;22.20;13.88;;;;;;;8.24;100.00;99956.13;5136143;27;20049;-73
2021/10/13 02:57:47;;;;;;;21.23;12.82;;;;;;;8.28;100.00;99957.66;5135943;27;20039;-73
2021/10/13 03:00:16;;;;;;;22.90;14.02;;;;;;;8.18;100.00;99953.81;5136036;27;20043;-75
2021/10/13 03:02:53;;;;;;;24.27;13.85;;;;;;;8.21;100.00;99951.84;5135786;27;20491;-75
2021/10/13 03:05:23;;;;;;;21.98;14.25;;;;;;;8.21;100.00;99953.66;5135639;27;20039;-71
2021/10/13 03:07:55;;;;;;;22.00;13.57;;;;;;;8.24;100.00;99953.47;5135542;27;20050;-71
2021/10/13 03:10:25;;;;;;;20.98;13.60;;;;;;;8.23;100.00;99952.63;5135874;27;20047;-72
2021/10/13 03:12:58;;;;;;;22.42;13.85;;;;;;;8.13;100.00;99958.53;5135430;27;20081;-77
2021/10/13 03:15:30;;;;;;;21.55;13.48;;;;;;;8.27;100.00;99958.63;5135436;27;20046;-78
2021/10/13 03:18:04;;;;;;;22.38;14.10;;;;;;;8.20;100.00;99952.81;5135696;27;20458;-74
2021/10/13 03:20:33;;;;;;;21.75;13.57;;;;;;;8.22;100.00;99964.19;5135037;27;20041;-74
2021/10/13 03:23:03;;;;;;;22.42;13.60;;;;;;;8.21;100.00;99964.28;5135264;27;20078;-75
2021/10/13 03:25:34;;;;;;;21.48;14.15;;;;;;;8.24;100.00;99956.13;5135475;27;20062;-75
2021/10/13 03:28:04;;;;;;;21.15;14.00;;;;;;;8.24;100.00;99964.09;5135126;27;20047;-75
2021/10/13 03:30:33;;;;;;;21.90;13.30;;;;;;;8.38;100.00;99966.03;5134996;27;20500;-75
2021/10/13 03:33:02;;;;;;;20.17;13.15;;;;;;;8.24;100.00;99964.09;5135123;27;20180;-75
2021/10/13 03:35:32;;;;;;;20.88;13.10;;;;;;;8.35;100.00;99971.50;5134789;27;20047;-78
2021/10/13 03:38:03;;;;;;;21.73;13.82;;;;;;;8.30;100.00;99969.09;5135677;27;20053;-77
2021/10/13 03:40:34;;;;;;;24.55;14.57;;;;;;;8.38;100.00;99976.66;5134820;27;20440;-79
2021/10/13 03:43:02;;;;;;;22.35;13.57;;;;;;;8.34;100.00;99975.94;5135162;27;20123;-75
2021/10/13 03:45:31;;;;;;;22.92;13.63;;;;;;;8.44;100.00;99976.31;5134647;27;20053;-81
2021/10/13 03:47:59;;;;;;;22.77;13.43;;;;;;;8.33;100.00;99979.53;5135188;27;20035;-75
2021/10/13 03:50:29;;;;;;;20.77;13.10;;;;;;;8.40;100.00;99980.97;5135041;27;20400;-75
2021/10/13 03:52:57;;;;;;;22.17;13.55;;;;;;;8.36;100.00;99979.41;5134684;27;20073;-75
2021/10/13 03:55:26;;;;;;;21.15;13.65;;;;;;;8.41;100.00;99982.69;5134660;27;20051;-76
2021/10/13 03:57:54;;;;;;;24.98;13.80;;;;;;;8.42;100.00;99981.72;5134505;27;20108;-75
2021/10/13 04:00:22;;;;;;;19.75;12.50;;;;;;;8.45;100.00;99976.22;5134435;27;20035;-75
2021/10/13 04:02:50;;;;;;;21.50;12.70;;;;;;;8.42;100.00;99971.09;5134430;27;20039;-75
2021/10/13 04:05:19;;;;;;;20.15;12.68;;;;;;;8.35;100.00;99968.84;5134516;27;20118;-75
2021/10/13 04:07:49;;;;;;;22.05;12.82;;;;;;;8.40;100.00;99958.84;5134632;27;20042;-74
2021/10/13 04:10:17;;;;;;;19.48;12.38;;;;;;;8.51;100.00;99953.78;5134581;27;20081;-74
2021/10/13 04:12:45;;;;;;;20.27;11.95;;;;;;;8.53;100.00;99963.38;5134155;27;20450;-76
2021/10/13 04:15:14;;;;;;;19.77;12.10;;;;;;;8.57;100.00;99956.94;5134331;27;20047;-77
2021/10/13 04:17:43;;;;;;;20.05;12.65;;;;;;;8.49;100.00;99961.84;5134040;27;20100;-77
2021/10/13 04:20:12;;;;;;;21.42;13.07;;;;;;;8.42;100.00;99965.78;5134333;27;20043;-76
2021/10/13 04:22:41;;;;;;;20.88;13.75;;;;;;;8.51;100.00;99967.94;5134061;27;20134;-76
2021/10/13 04:25:10;;;;;;;19.67;12.45;;;;;;;8.49;100.00;99960.97;5134205;27;20039;-76
2021/10/13 04:27:39;;;;;;;20.15;12.75;;;;;;;8.54;100.00;99958.91;5133762;27;20069;-74
2021/10/13 04:30:09;;;;;;;22.05;13.00;;;;;;;8.47;100.00;99963.72;5134057;27;20122;-70
2021/10/13 04:32:45;;;;;;;21.65;12.65;;;;;;;8.62;100.00;99963.81;5134164;27;20047;-71
2021/10/13 04:35:13;;;;;;;19.27;11.82;;;;;;;8.56;100.00;99957.88;5133983;27;20039;-71
2021/10/13 04:37:42;;;;;;;17.75;11.23;;;;;;;8.60;100.00;99961.22;5133940;27;20047;-72
2021/10/13 04:40:12;;;;;;;19.27;12.65;;;;;;;8.58;100.00;99963.94;5133958;27;20039;-71
2021/10/13 04:42:41;;;;;;;18.45;11.68;;;;;;;8.47;100.00;99966.38;5133713;27;20444;-72
2021/10/13 04:45:10;;;;;;;19.85;11.75;;;;;;;8.54;100.00;99967.75;5133909;27;20047;-71
2021/10/13 04:47:38;;;;;;;19.83;12.02;;;;;;;8.52;100.00;99958.16;5133566;27;20072;-72
2021/10/13 04:50:08;;;;;;;17.75;11.63;;;;;;;8.52;100.00;99969.63;5133890;28;20068;-71
2021/10/13 04:52:37;;;;;;;17.95;10.45;;;;;;;8.49;100.00;99964.50;5132167;27;20043;-75
2021/10/13 04:55:06;;;;;;;22.17;11.90;;;;;;;8.45;100.00;99976.22;5133406;27;20046;-71
2021/10/13 04:57:36;;;;;;;19.73;12.23;;;;;;;8.47;100.00;99982.31;5133625;28;20042;-70
2021/10/13 05:00:05;;;;;;;21.92;12.68;;;;;;;8.52;100.00;99980.28;5133837;27;20138;-70
2021/10/13 05:02:34;;;;;;;17.35;11.27;;;;;;;8.63;100.00;99981.47;5133631;28;20039;-70
2021/10/13 05:05:03;;;;;;;17.40;10.63;;;;;;;8.57;100.00;99977.34;5133941;27;20039;-70
2021/10/13 05:07:31;;;;;;;20.88;11.43;;;;;;;8.63;100.00;99989.44;5132720;27;20055;-70
2021/10/13 05:09:59;;;;;;;20.67;11.32;;;;;;;8.63;100.00;99987.63;5133437;28;20040;-70
2021/10/13 05:12:28;;;;;;;18.55;11.55;;;;;;;8.63;100.00;100000.09;5133891;27;20476;-70
2021/10/13 05:14:57;;;;;;;16.85;9.90;;;;;;;8.68;100.00;99995.34;5133558;28;20070;-70
2021/10/13 05:17:26;;;;;;;18.15;11.10;;;;;;;8.72;100.00;100007.53;5133749;27;20096;-72
2021/10/13 05:19:54;;;;;;;17.60;10.98;;;;;;;8.79;100.00;100014.22;5133503;28;20039;-72
2021/10/13 05:22:23;;;;;;;18.63;11.43;;;;;;;8.81;100.00;100012.34;5133572;27;20442;-72
2021/10/13 05:24:51;;;;;;;16.85;9.90;;;;;;;8.95;100.00;100019.53;5133460;27;20043;-73
2021/10/13 05:27:19;;;;;;;18.70;11.52;;;;;;;8.94;100.00;100028.44;5133447;27;20044;-72
2021/10/13 05:29:47;;;;;;;20.02;12.68;;;;;;;8.94;100.00;100034.63;5133465;27;20055;-71
2021/10/13 05:32:17;;;;;;;20.38;12.25;;;;;;;8.96;100.00;100040.72;5133718;27;20055;-71
2021/10/13 05:34:45;;;;;;;20.45;12.68;;;;;;;8.84;100.00;100039.59;5133098;27;20411;-71
2021/10/13 05:37:13;;;;;;;20.13;12.13;;;;;;;8.76;100.00;100056.94;5133656;28;20043;-71
2021/10/13 05:39:42;;;;;;;19.92;12.88;;;;;;;8.76;100.00;100063.13;5132943;27;20043;-71
2021/10/13 05:42:10;;;;;;;17.20;10.88;;;;;;;8.73;100.00;100062.44;5133524;27;20054;-70
2021/10/13 05:44:38;;;;;;;17.83;11.18;;;;;;;8.64;100.00;100068.25;5133288;28;20457;-77
2021/10/13 05:47:07;;;;;;;15.10;9.57;;;;;;;8.70;100.00;100068.78;5133237;27;20071;-72
2021/10/13 05:49:37;;;;;;;14.18;9.43;;;;;;;8.64;100.00;100078.91;5133002;27;20049;-72
2021/10/13 05:52:06;;;;;;;14.63;9.75;;;;;;;8.64;100.00;100084.22;5133097;27;20130;-71
2021/10/13 05:54:35;;;;;;;16.88;9.55;;;;;;;8.67;100.00;100084.03;5133148;27;20040;-72
2021/10/13 05:57:03;;;;;;;13.20;8.70;;;;;;;8.71;100.00;100088.25;5133069;27;20045;-71
2021/10/13 05:59:36;;;;;;;11.38;7.03;;;;;;;8.66;100.00;100085.84;5133252;27;20036;-71
2021/10/13 06:02:04;;;;;;;10.63;6.38;;;;;;;8.56;100.00;100098.78;5132757;28;20391;-71
2021/10/13 06:04:33;;;;;;;12.30;7.32;;;;;;;8.46;100.00;100097.56;5133232;27;20100;-71
2021/10/13 06:07:02;;;;;;;12.10;7.88;;;;;;;8.53;100.00;100103.41;5135859;27;20488;-71
2021/10/13 06:09:30;;;;;;;13.02;7.38;;;;;;;8.49;100.00;100101.84;5136832;27;20122;-71
2021/10/13 06:12:02;;;;;;;8.80;5.60;;;;;;;8.50;100.00;100114.22;5135096;27;20146;-69
2021/10/13 06:14:30;;;;;;;12.20;7.30;;;;;;;8.48;100.00;100114.28;5136900;27;20039;-69
2021/10/13 06:16:58;;;;;;;11.48;7.80;;;;;;;8.41;100.00;100115.56;5136336;27;20047;-68
2021/10/13 06:19:26;;;;;;;12.25;7.80;;;;;;;8.53;100.00;100109.59;5136749;27;20043;-69
2021/10/13 06:21:54;;;;;;;9.57;5.88;;;;;;;8.46;100.00;100118.81;5136454;27;20068;-68
2021/10/13 06:24:24;;;;;;;12.38;7.63;;;;;;;8.47;100.00;100120.53;5136494;27;20047;-71
2021/10/13 06:26:53;;;;;;;10.82;7.20;;;;;;;8.50;100.00;100124.84;5136594;27;20096;-70
2021/10/13 06:29:21;;;;;;;10.60;7.22;;;;;;;8.59;100.00;100135.84;5136643;27;20041;-71
2021/10/13 06:31:49;;;;;;;10.13;6.57;;;;;;;8.59;100.00;100135.84;5136132;27;20088;-70
2021/10/13 06:34:17;;;;;;;11.30;7.07;;;;;;;8.53;100.00;100145.94;5136291;27;20047;-70
2021/10/13 06:36:45;;;;;;;9.25;6.60;;;;;;;8.68;100.00;100138.94;5136214;27;20045;-71
2021/10/13 06:39:14;;;;;;;9.65;6.88;;;;;;;8.75;100.00;100140.31;5136536;27;20043;-70
2021/10/13 06:41:43;;;;;;;9.25;6.50;;;;;;;8.81;100.00;100145.31;5136070;27;20464;-70
2021/10/13 06:44:12;;;;;;;10.38;6.72;;;;;;;8.87;100.00;100144.97;5136365;27;20039;-71
2021/10/13 06:46:40;;;;;;;9.25;6.57;;;;;;;8.82;100.00;100147.91;5136317;27;20073;-69
2021/10/13 06:49:09;;;;;;;8.73;5.97;;;;;;;8.79;100.00;100141.91;5136157;27;20039;-70
2021/10/13 06:51:37;;;;;;;10.32;6.22;;;;;;;8.83;100.00;100151.41;5135967;27;20047;-68
2021/10/13 06:54:06;;;;;;;10.23;6.13;;;;;;;8.75;100.00;100142.97;5135433;27;20569;-70
2021/10/13 06:56:34;;;;;;;9.15;6.00;;;;;;;8.75;100.00;100145.66;5136001;27;20498;-70
2021/10/13 06:59:04;;;;;;;10.73;6.65;;;;;;;8.67;100.00;100154.03;5134682;27;20051;-67
2021/10/13 07:01:33;;;;;;;8.93;6.13;;;;;;;8.74;100.00;100146.59;5135521;27;20096;-68
2021/10/13 07:04:04;;;;;;;12.45;6.65;;;;;;;8.69;100.00;100152.16;5135693;27;20039;-68
2021/10/13 07:06:32;;;;;;;9.23;6.15;;;;;;;8.72;100.00;100167.09;5134245;27;20396;-68
2021/10/13 07:09:00;;;;;;;7.78;5.80;;;;;;;8.75;100.00;100161.59;5135404;27;20066;-68
2021/10/13 07:11:29;;;;;;;10.77;6.00;;;;;;;8.79;100.00;100166.69;5135823;27;20055;-67
2021/10/13 07:13:57;;;;;;;8.30;5.72;;;;;;;8.72;100.00;100170.59;5133986;27;20069;-68
2021/10/13 07:16:26;;;;;;;7.68;5.07;;;;;;;8.72;100.00;100167.94;5135084;27;20043;-68
2021/10/13 07:18:55;;;;;;;6.63;4.47;;;;;;;8.67;100.00;100166.47;5134767;27;20043;-68
2021/10/13 07:21:23;;;;;;;7.97;4.65;;;;;;;8.66;100.00;100175.38;5135397;27;20043;-68
2021/10/13 07:23:51;;;;;;;7.82;4.63;;;;;;;8.64;100.00;100177.28;5133265;27;20051;-67
2021/10/13 07:26:19;;;;;;;8.93;5.18;;;;;;;8.60;100.00;100177.44;5134926;27;20540;-69
2021/10/13 07:28:47;;;;;;;7.90;4.90;;;;;;;8.57;100.00;100193.53;5134807;27;20126;-67
2021/10/13 07:31:16;;;;;;;9.02;4.75;;;;;;;8.55;100.00;100187.44;5134708;27;20104;-67
2021/10/13 07:33:45;;;;;;;5.60;4.03;;;;;;;8.54;100.00;100188.41;5134993;27;20135;-67
2021/10/13 07:36:14;;;;;;;7.63;4.65;;;;;;;8.63;100.00;100188.84;5135345;27;20113;-68
2021/10/13 07:38:43;;;;;;;6.85;4.80;;;;;;;8.67;100.00;100193.06;5134741;27;20047;-68
2021/10/13 07:41:15;;;;;;;6.90;4.63;;;;;;;8.69;100.00;100194.72;5135310;27;20043;-68
2021/10/13 07:43:45;;;;;;;6.03;4.40;;;;;;;8.71;100.00;100194.63;5134966;27;20320;-67
2021/10/13 07:46:14;;;;;;;6.65;4.60;;;;;;;8.78;100.00;100194.22;5134783;27;20047;-68
2021/10/13 07:48:43;;;;;;;5.88;4.22;;;;;;;8.93;100.00;100200.50;5135061;27;20039;-68
2021/10/13 07:51:13;;;;;;;6.15;3.40;;;;;;;8.92;100.00;100201.44;5134708;27;20036;-68
2021/10/13 07:53:41;;;;;;;7.20;3.80;;;;;;;9.09;100.00;100197.88;5135057;27;20047;-68
2021/10/13 07:56:09;;;;;;;5.85;3.58;;;;;;;9.17;100.00;100199.19;5134654;27;20468;-67
2021/10/13 07:58:37;;;;;;;6.50;3.97;;;;;;;9.22;100.00;100198.06;5134611;27;20506;-67
2021/10/13 08:01:06;;;;;;;6.18;3.85;;;;;;;9.20;100.00;100197.28;5134338;27;20039;-68
2021/10/13 08:03:34;;;;;;;5.55;3.67;;;;;;;9.17;100.00;100196.50;5134451;27;20043;-68
2021/10/13 08:06:02;;;;;;;6.47;3.63;;;;;;;9.24;100.00;100202.34;5134524;27;20492;-68
2021/10/13 08:08:32;;;;;;;6.13;3.30;;;;;;;9.16;100.00;100189.44;5134768;27;20043;-69
2021/10/13 08:11:00;;;;;;;5.90;3.58;;;;;;;9.25;100.00;100197.88;5134354;27;20055;-67
2021/10/13 08:13:28;;;;;;;4.80;3.22;;;;;;;9.27;100.00;100202.19;5134395;27;20043;-67
2021/10/13 08:15:56;;;;;;;4.57;3.25;;;;;;;9.26;100.00;100194.25;5134266;27;20046;-66
2021/10/13 08:18:25;;;;;;;5.50;3.35;;;;;;;9.16;100.00;100193.91;5133345;27;20061;-67
2021/10/13 08:20:53;;;;;;;4.65;2.60;;;;;;;9.25;100.00;100204.06;5134233;27;20032;-69
2021/10/13 08:23:22;;;;;;;5.63;2.85;;;;;;;9.37;100.00;100202.53;5134132;27;20043;-69
2021/10/13 08:25:54;;;;;;;4.88;2.50;;;;;;;9.39;100.00;100205.97;5134180;27;20050;-72
2021/10/13 08:28:23;;;;;;;5.53;2.55;;;;;;;9.40;100.00;100197.88;5133669;27;20047;-68
2021/10/13 08:30:52;;;;;;;5.40;2.90;;;;;;;9.38;100.00;100198.94;5133929;27;20092;-68
2021/10/13 08:33:20;;;;;;;6.32;3.17;;;;;;;9.53;100.00;100211.34;5134507;27;20130;-68
2021/10/13 08:35:49;;;;;;;5.22;2.70;;;;;;;9.63;99.39;100212.56;5134100;27;20122;-67
2021/10/13 08:38:17;;;;;;;4.80;2.67;;;;;;;9.63;99.28;100219.69;5133591;27;20556;-67
2021/10/13 08:40:48;;;;;;;4.88;3.05;;;;;;;9.72;98.12;100211.16;5134219;27;20067;-68
2021/10/13 08:43:18;;;;;;;5.78;2.80;;;;;;;9.72;95.36;100214.69;5133903;27;20048;-69
2021/10/13 08:45:48;;;;;;;5.50;2.78;;;;;;;9.81;94.95;100217.78;5133536;27;20134;-68
2021/10/13 08:48:17;;;;;;;6.13;2.60;;;;;;;9.80;95.12;100216.06;5133500;27;20085;-68
2021/10/13 08:50:49;;;;;;;3.70;2.50;;;;;;;9.90;96.37;100206.59;5133365;27;20051;-67
2021/10/13 08:53:21;;;;;;;4.35;2.20;;;;;;;9.86;94.31;100215.72;5133700;27;20047;-67
2021/10/13 08:55:50;;;;;;;5.18;2.72;;;;;;;10.03;95.01;100215.56;5133603;27;20126;-68
2021/10/13 08:58:21;;;;;;;4.50;2.10;;;;;;;9.95;93.06;100212.53;5133551;27;20043;-68
2021/10/13 09:00:52;;;;;;;8.90;2.50;;;;;;;9.98;91.02;100215.00;5133821;27;20039;-68
2021/10/13 09:03:31;;;;;;;4.70;2.28;;;;;;;10.14;89.07;100207.84;5132123;28;20047;-68
2021/10/13 09:06:12;;;;;;;5.80;1.98;;;;;;;10.18;88.07;100212.03;5133748;28;20035;-67
2021/10/13 09:08:53;;;;;;;3.10;2.08;;;;;;;10.03;87.78;100199.59;5133721;27;20456;-68
2021/10/13 09:11:33;;;;;;;2.88;1.48;;;;;;;10.08;83.68;100210.84;5133646;27;20092;-68
2021/10/13 09:14:22;;;;;;;3.47;1.52;;;;;;;10.05;82.00;100216.38;5133241;27;20054;-67
2021/10/13 09:16:58;;;;;;;3.90;1.35;;;;;;;10.18;82.51;100209.38;5133837;28;20046;-68
2021/10/13 09:19:28;;;;;;;5.40;1.70;;;;;;;10.34;81.13;100200.50;5133862;27;20039;-68
2021/10/13 09:21:59;;;;;;;4.18;1.50;;;;;;;10.41;78.63;100207.16;5133376;27;20050;-69
2021/10/13 09:24:29;;;;;;;2.30;1.10;;;;;;;10.43;77.08;100194.59;5133820;28;20543;-68
2021/10/13 09:26:59;;;;;;;4.55;1.50;;;;;;;10.54;75.95;100208.16;5133733;28;20468;-68
2021/10/13 09:29:30;;;;;;;3.40;1.42;;;;;;;10.64;75.09;100203.13;5133558;28;20043;-68
2021/10/13 09:32:02;;;;;;;5.57;1.38;;;;;;;10.85;75.62;100213.31;5133525;27;20070;-68
2021/10/13 09:34:30;;;;;;;3.38;1.38;;;;;;;10.87;74.83;100219.41;5133482;27;20514;-68
2021/10/13 09:37:02;;;;;;;2.75;1.20;;;;;;;10.75;72.12;100216.66;5133192;27;20511;-69
2021/10/13 09:39:31;;;;;;;2.60;1.23;;;;;;;10.52;72.21;100223.38;5134523;27;20051;-68
2021/10/13 09:42:07;;;;;;;4.97;1.08;;;;;;;10.43;73.22;100224.81;5137466;27;20407;-68
2021/10/13 09:44:39;;;;;;;1.83;1.00;;;;;;;10.52;72.59;100220.72;5137293;27;20084;-68
2021/10/13 09:47:09;;;;;;;1.02;0.75;;;;;;;10.48;72.32;100224.50;5137450;27;20067;-67
2021/10/13 09:49:39;;;;;;;3.47;1.10;;;;;;;10.27;71.44;100240.84;5137521;27;20487;-67
2021/10/13 09:52:11;;;;;;;1.42;1.00;;;;;;;10.38;71.44;100231.34;5137081;27;20398;-67
2021/10/13 09:54:41;;;;;;;1.85;0.90;;;;;;;10.27;69.84;100253.31;5137380;27;20050;-68
2021/10/13 09:57:21;;;;;;;2.08;1.05;;;;;;;10.29;69.46;100230.94;5135467;27;20047;-67
2021/10/13 09:59:59;;;;;;;4.22;0.93;;;;;;;10.37;69.64;100232.28;5137473;27;20131;-68
2021/10/13 10:02:31;;;;;;;1.10;0.63;;;;;;;10.48;69.89;100219.19;5136878;27;20035;-68
2021/10/13 10:05:03;;;;;;;2.63;1.00;;;;;;;10.60;68.14;100240.63;5136970;27;20037;-69
2021/10/13 10:07:32;;;;;;;1.88;0.90;;;;;;;10.63;66.97;100234.25;5136712;27;20035;-68
2021/10/13 10:10:08;;;;;;;1.05;0.80;;;;;;;10.56;66.51;100227.56;5136458;27;20043;-68
2021/10/13 10:13:05;;;;;;;2.55;0.98;;;;;;;10.54;66.28;100234.81;5136534;27;20062;-67
2021/10/13 10:15:37;;;;;;;3.42;0.88;;;;;;;10.61;67.49;100230.81;5135538;27;20050;-68
2021/10/13 10:18:31;;;;;;;2.53;1.15;;;;;;;10.94;67.36;100221.72;5136652;27;20479;-69
2021/10/13 10:21:19;;;;;;;2.63;0.75;;;;;;;10.86;66.71;100236.38;5136182;27;20422;-69
2021/10/13 10:23:48;;;;;;;1.55;0.80;;;;;;;10.87;64.78;100286.13;5135795;27;20054;-67
2021/10/13 10:26:31;;;;;;;2.15;0.93;;;;;;;10.67;64.05;100227.78;5135493;27;20095;-69
2021/10/13 10:29:00;;;;;;;1.53;0.80;;;;;;;10.77;64.85;100247.59;5135655;27;20054;-69
2021/10/13 10:31:42;;;;;;;2.15;0.98;;;;;;;10.78;67.59;100241.31;5135802;27;20051;-68
2021/10/13 10:34:16;;;;;;;3.95;1.20;;;;;;;10.95;66.58;100244.78;5135644;27;20100;-68
2021/10/13 10:37:11;;;;;;;2.58;1.08;;;;;;;11.05;67.48;100230.75;5136257;27;20035;-69
2021/10/13 10:40:11;;;;;;;2.17;1.23;;;;;;;11.27;65.35;100250.75;5135613;27;20063;-69
2021/10/13 10:43:04;;;;;;;1.25;0.85;;;;;;;11.11;63.87;100242.88;5135911;27;20129;-68
2021/10/13 10:45:38;;;;;;;2.40;1.10;;;;;;;10.99;64.44;100241.81;5116718;27;20392;-68
2021/10/13 10:48:13;;;;;;;3.15;1.27;;;;;;;10.92;65.52;100236.97;5135672;27;20062;-68
2021/10/13 10:50:58;;;;;;;1.73;0.90;;;;;;;10.84;67.32;100246.28;5135543;27;20099;-68
2021/10/13 10:53:44;;;;;;;2.65;1.13;;;;;;;10.80;68.42;100242.06;5133784;27;20415;-67
2021/10/13 10:56:28;;;;;;;2.45;1.42;;;;;;;10.81;66.94;100226.94;5135887;27;20476;-67
2021/10/13 10:59:12;;;;;;;1.95;1.08;;;;;;;10.90;64.44;100245.03;5135479;27;20081;-68
2021/10/13 11:02:10;;;;;;;3.08;0.90;;;;;;;10.77;64.83;100255.63;5133753;27;20047;-66
2021/10/13 11:04:40;;;;;;;3.25;0.93;;;;;;;10.73;64.88;100240.75;5135650;27;20047;-68
2021/10/13 11:07:28;;;;;;;2.20;0.93;;;;;;;10.58;65.42;100228.34;5135808;27;20480;-68
2021/10/13 11:10:00;;;;;;;2.33;0.80;;;;;;;10.45;63.54;100228.22;5135705;27;20047;-68
2021/10/13 11:12:29;;;;;;;1.23;0.70;;;;;;;10.49;63.77;100236.88;5135449;27;20038;-68
2021/10/13 11:15:12;;;;;;;2.70;1.88;;;;;;;10.68;63.59;100242.81;5135833;27;20461;-68
2021/10/13 11:17:40;;;;;;;2.50;0.88;;;;;;;10.94;63.74;100237.72;5133627;27;20412;-68
2021/10/13 11:20:12;;;;;;;2.72;1.02;;;;;;;10.91;63.96;100227.25;5135230;27;20073;-68
2021/10/13 11:22:43;;;;;;;1.45;0.95;;;;;;;10.96;63.90;100241.16;5135171;27;20035;-67
2021/10/13 11:25:17;;;;;;;5.53;1.17;;;;;;;11.05;64.20;100240.56;5134870;27;20047;-68
2021/10/13 11:27:58;;;;;;;0.60;0.60;;;;;;;11.10;62.53;100260.69;5135248;27;20046;-68
2021/10/13 11:30:29;;;;;;;3.05;1.00;;;;;;;11.11;62.87;100240.19;5135002;27;20107;-68
2021/10/13 11:32:57;;;;;;;2.40;0.90;;;;;;;11.12;62.57;100244.59;5135404;27;20082;-68
2021/10/13 11:35:27;;;;;;;3.42;0.95;;;;;;;11.25;63.87;100234.84;5134999;27;20101;-68
2021/10/13 11:37:55;;;;;;;1.67;1.02;;;;;;;11.35;62.51;100227.97;5135267;27;20126;-68